sensor_id;sensor_type;location;lat;lon;timestamp;P1;P2;P0
55043;PMS5003;54902;50.420;18.854;2022-12-07T00:00:23;16;15;10
55043;PMS5003;54902;50.420;18.854;2022-12-07T00:00:54;16;15;10
55043;PMS5003;54902;50.420;18.854;2022-12-07T00:01:30;20;20;13
55043;PMS5003;54902;50.420;18.854;2022-12-07T00:02:02;5;5;3
55043;PMS5003;54902;50.420;18.854;2022-12-07T00:02:33;5;5;3
55043;PMS5003;54902;50.420;18.854;2022-12-07T00:03:04;5;5;3
55043;PMS5003;54902;50.420;18.854;2022-12-07T00:03:35;5;5;3
55043;PMS5003;54902;50.420;18.854;2022-12-07T00:04:09;5;5;3
55043;PMS5003;54902;50.420;18.854;2022-12-07T00:04:42;5;5;3
55043;PMS5003;54902;50.420;18.854;2022-12-07T00:05:13;5;5;3
55043;PMS5003;54902;50.420;18.854;2022-12-07T00:05:44;5;5;3
55043;PMS5003;54902;50.420;18.854;2022-12-07T00:06:15;5;5;3
55043;PMS5003;54902;50.420;18.854;2022-12-07T00:06:50;5;5;3
55043;PMS5003;54902;50.420;18.854;2022-12-07T00:07:23;9;9;6
55043;PMS5003;54902;50.420;18.854;2022-12-07T00:07:54;9;9;6
55043;PMS5003;54902;50.420;18.854;2022-12-07T00:08:25;9;9;6
55043;PMS5003;54902;50.420;18.854;2022-12-07T00:08:56;9;9;6
55043;PMS5003;54902;50.420;18.854;2022-12-07T00:09:27;9;9;6
55043;PMS5003;54902;50.420;18.854;2022-12-07T00:09:58;9;9;6
55043;PMS5003;54902;50.420;18.854;2022-12-07T00:10:29;9;9;6
55043;PMS5003;54902;50.420;18.854;2022-12-07T00:11:01;9;9;6
55043;PMS5003;54902;50.420;18.854;2022-12-07T00:11:33;10;10;6
55043;PMS5003;54902;50.420;18.854;2022-12-07T00:12:04;10;10;6
55043;PMS5003;54902;50.420;18.854;2022-12-07T00:12:36;16;16;10
55043;PMS5003;54902;50.420;18.854;2022-12-07T00:13:07;16;16;10
55043;PMS5003;54902;50.420;18.854;2022-12-07T00:13:38;16;16;10
55043;PMS5003;54902;50.420;18.854;2022-12-07T00:14:11;16;16;10
55043;PMS5003;54902;50.420;18.854;2022-12-07T00:14:44;16;16;10
55043;PMS5003;54902;50.420;18.854;2022-12-07T00:15:15;16;16;10
55043;PMS5003;54902;50.420;18.854;2022-12-07T00:15:46;16;16;10
55043;PMS5003;54902;50.420;18.854;2022-12-07T00:16:17;16;16;10
55043;PMS5003;54902;50.420;18.854;2022-12-07T00:16:50;16;16;10
55043;PMS5003;54902;50.420;18.854;2022-12-07T00:17:22;21;21;14
55043;PMS5003;54902;50.420;18.854;2022-12-07T00:17:53;21;21;12
55043;PMS5003;54902;50.420;18.854;2022-12-07T00:18:24;21;21;12
55043;PMS5003;54902;50.420;18.854;2022-12-07T00:18:55;21;21;12
55043;PMS5003;54902;50.420;18.854;2022-12-07T00:19:27;21;21;12
55043;PMS5003;54902;50.420;18.854;2022-12-07T00:19:58;21;21;12
55043;PMS5003;54902;50.420;18.854;2022-12-07T00:20:29;21;21;12
55043;PMS5003;54902;50.420;18.854;2022-12-07T00:21:01;21;21;12
55043;PMS5003;54902;50.420;18.854;2022-12-07T00:21:35;21;21;12
55043;PMS5003;54902;50.420;18.854;2022-12-07T00:22:06;21;21;12
55043;PMS5003;54902;50.420;18.854;2022-12-07T00:22:37;21;21;12
55043;PMS5003;54902;50.420;18.854;2022-12-07T00:23:08;33;33;19
55043;PMS5003;54902;50.420;18.854;2022-12-07T00:23:39;33;33;19
55043;PMS5003;54902;50.420;18.854;2022-12-07T00:24:11;33;33;19
55043;PMS5003;54902;50.420;18.854;2022-12-07T00:24:43;33;33;19
55043;PMS5003;54902;50.420;18.854;2022-12-07T00:25:14;33;33;19
55043;PMS5003;54902;50.420;18.854;2022-12-07T00:25:45;33;33;19
55043;PMS5003;54902;50.420;18.854;2022-12-07T00:26:56;33;33;19
55043;PMS5003;54902;50.420;18.854;2022-12-07T00:27:27;33;33;19
55043;PMS5003;54902;50.420;18.854;2022-12-07T00:27:58;33;33;19
55043;PMS5003;54902;50.420;18.854;2022-12-07T00:28:29;33;33;19
55043;PMS5003;54902;50.420;18.854;2022-12-07T00:29:04;33;33;19
55043;PMS5003;54902;50.420;18.854;2022-12-07T00:29:37;15;14;7
55043;PMS5003;54902;50.420;18.854;2022-12-07T00:30:08;15;14;7
55043;PMS5003;54902;50.420;18.854;2022-12-07T00:30:39;15;14;7
55043;PMS5003;54902;50.420;18.854;2022-12-07T00:31:11;15;14;7
55043;PMS5003;54902;50.420;18.854;2022-12-07T00:31:43;15;14;7
55043;PMS5003;54902;50.420;18.854;2022-12-07T00:32:14;15;14;7
55043;PMS5003;54902;50.420;18.854;2022-12-07T00:32:45;15;14;7
55043;PMS5003;54902;50.420;18.854;2022-12-07T00:33:16;15;14;7
55043;PMS5003;54902;50.420;18.854;2022-12-07T00:33:47;20;17;6
55043;PMS5003;54902;50.420;18.854;2022-12-07T00:34:19;20;17;6
55043;PMS5003;54902;50.420;18.854;2022-12-07T00:34:51;13;12;8
55043;PMS5003;54902;50.420;18.854;2022-12-07T00:35:22;13;12;8
55043;PMS5003;54902;50.420;18.854;2022-12-07T00:35:59;13;12;8
55043;PMS5003;54902;50.420;18.854;2022-12-07T00:36:31;13;12;8
55043;PMS5003;54902;50.420;18.854;2022-12-07T00:37:02;13;12;8
55043;PMS5003;54902;50.420;18.854;2022-12-07T00:37:33;13;12;8
55043;PMS5003;54902;50.420;18.854;2022-12-07T00:38:04;13;12;8
55043;PMS5003;54902;50.420;18.854;2022-12-07T00:38:35;13;12;8
55043;PMS5003;54902;50.420;18.854;2022-12-07T00:39:08;21;20;12
55043;PMS5003;54902;50.420;18.854;2022-12-07T00:39:39;21;20;12
55043;PMS5003;54902;50.420;18.854;2022-12-07T00:40:10;21;20;12
55043;PMS5003;54902;50.420;18.854;2022-12-07T00:40:41;21;20;12
55043;PMS5003;54902;50.420;18.854;2022-12-07T00:41:16;21;20;12
55043;PMS5003;54902;50.420;18.854;2022-12-07T00:41:49;14;14;9
55043;PMS5003;54902;50.420;18.854;2022-12-07T00:42:20;14;14;9
55043;PMS5003;54902;50.420;18.854;2022-12-07T00:42:51;14;14;9
55043;PMS5003;54902;50.420;18.854;2022-12-07T00:43:22;14;14;9
55043;PMS5003;54902;50.420;18.854;2022-12-07T00:43:53;14;14;9
55043;PMS5003;54902;50.420;18.854;2022-12-07T00:44:24;15;15;10
55043;PMS5003;54902;50.420;18.854;2022-12-07T00:44:55;15;15;10
55043;PMS5003;54902;50.420;18.854;2022-12-07T00:45:25;15;15;10
55043;PMS5003;54902;50.420;18.854;2022-12-07T00:45:57;15;15;10
55043;PMS5003;54902;50.420;18.854;2022-12-07T00:46:28;15;15;10
55043;PMS5003;54902;50.420;18.854;2022-12-07T00:47:00;15;15;10
55043;PMS5003;54902;50.420;18.854;2022-12-07T00:47:31;15;15;10
55043;PMS5003;54902;50.420;18.854;2022-12-07T00:48:02;15;15;10
55043;PMS5003;54902;50.420;18.854;2022-12-07T00:48:33;15;15;10
55043;PMS5003;54902;50.420;18.854;2022-12-07T00:49:05;15;15;10
55043;PMS5003;54902;50.420;18.854;2022-12-07T00:49:36;18;18;13
55043;PMS5003;54902;50.420;18.854;2022-12-07T00:50:07;18;18;13
55043;PMS5003;54902;50.420;18.854;2022-12-07T00:50:38;18;18;13
55043;PMS5003;54902;50.420;18.854;2022-12-07T00:51:12;18;18;13
55043;PMS5003;54902;50.420;18.854;2022-12-07T00:51:45;18;18;13
55043;PMS5003;54902;50.420;18.854;2022-12-07T00:52:18;18;18;13
55043;PMS5003;54902;50.420;18.854;2022-12-07T00:52:49;18;18;13
55043;PMS5003;54902;50.420;18.854;2022-12-07T00:53:20;18;18;13
55043;PMS5003;54902;50.420;18.854;2022-12-07T00:53:51;18;18;13
55043;PMS5003;54902;50.420;18.854;2022-12-07T00:54:23;18;18;13
55043;PMS5003;54902;50.420;18.854;2022-12-07T00:54:54;15;14;9
55043;PMS5003;54902;50.420;18.854;2022-12-07T00:55:25;15;14;9
55043;PMS5003;54902;50.420;18.854;2022-12-07T00:55:56;15;14;9
55043;PMS5003;54902;50.420;18.854;2022-12-07T00:56:27;15;14;9
55043;PMS5003;54902;50.420;18.854;2022-12-07T00:56:59;15;14;9
55043;PMS5003;54902;50.420;18.854;2022-12-07T00:57:30;15;14;9
55043;PMS5003;54902;50.420;18.854;2022-12-07T00:58:01;15;14;9
55043;PMS5003;54902;50.420;18.854;2022-12-07T00:58:33;15;14;9
55043;PMS5003;54902;50.420;18.854;2022-12-07T00:59:04;15;14;9
55043;PMS5003;54902;50.420;18.854;2022-12-07T00:59:35;15;14;9
55043;PMS5003;54902;50.420;18.854;2022-12-07T01:00:06;25;24;15
55043;PMS5003;54902;50.420;18.854;2022-12-07T01:00:39;25;24;15
55043;PMS5003;54902;50.420;18.854;2022-12-07T01:01:11;25;24;15
55043;PMS5003;54902;50.420;18.854;2022-12-07T01:01:42;25;24;15
55043;PMS5003;54902;50.420;18.854;2022-12-07T01:02:13;25;24;15
55043;PMS5003;54902;50.420;18.854;2022-12-07T01:02:44;25;24;15
55043;PMS5003;54902;50.420;18.854;2022-12-07T01:03:15;25;24;15
55043;PMS5003;54902;50.420;18.854;2022-12-07T01:03:47;25;24;15
55043;PMS5003;54902;50.420;18.854;2022-12-07T01:04:18;25;24;15
55043;PMS5003;54902;50.420;18.854;2022-12-07T01:04:49;25;24;15
55043;PMS5003;54902;50.420;18.854;2022-12-07T01:05:20;25;24;15
55043;PMS5003;54902;50.420;18.854;2022-12-07T01:05:51;25;24;15
55043;PMS5003;54902;50.420;18.854;2022-12-07T01:06:24;25;24;15
55043;PMS5003;54902;50.420;18.854;2022-12-07T01:06:56;25;24;15
55043;PMS5003;54902;50.420;18.854;2022-12-07T01:07:27;25;24;15
55043;PMS5003;54902;50.420;18.854;2022-12-07T01:07:58;25;24;15
55043;PMS5003;54902;50.420;18.854;2022-12-07T01:08:29;25;24;15
55043;PMS5003;54902;50.420;18.854;2022-12-07T01:09:00;25;24;15
55043;PMS5003;54902;50.420;18.854;2022-12-07T01:09:31;25;24;15
55043;PMS5003;54902;50.420;18.854;2022-12-07T01:10:03;25;24;15
55043;PMS5003;54902;50.420;18.854;2022-12-07T01:10:34;25;24;15
55043;PMS5003;54902;50.420;18.854;2022-12-07T01:11:06;25;24;15
55043;PMS5003;54902;50.420;18.854;2022-12-07T01:11:39;25;24;15
55043;PMS5003;54902;50.420;18.854;2022-12-07T01:12:10;25;24;15
55043;PMS5003;54902;50.420;18.854;2022-12-07T01:12:41;25;24;15
55043;PMS5003;54902;50.420;18.854;2022-12-07T01:13:12;25;24;15
55043;PMS5003;54902;50.420;18.854;2022-12-07T01:13:43;25;24;15
55043;PMS5003;54902;50.420;18.854;2022-12-07T01:14:15;25;24;15
55043;PMS5003;54902;50.420;18.854;2022-12-07T01:14:46;25;24;15
55043;PMS5003;54902;50.420;18.854;2022-12-07T01:15:17;25;24;15
55043;PMS5003;54902;50.420;18.854;2022-12-07T01:15:48;25;24;15
55043;PMS5003;54902;50.420;18.854;2022-12-07T01:16:20;25;24;15
55043;PMS5003;54902;50.420;18.854;2022-12-07T01:16:55;25;24;15
55043;PMS5003;54902;50.420;18.854;2022-12-07T01:17:27;25;24;15
55043;PMS5003;54902;50.420;18.854;2022-12-07T01:17:58;25;24;15
55043;PMS5003;54902;50.420;18.854;2022-12-07T01:18:30;25;24;15
55043;PMS5003;54902;50.420;18.854;2022-12-07T01:19:03;25;24;15
55043;PMS5003;54902;50.420;18.854;2022-12-07T01:19:34;25;24;15
55043;PMS5003;54902;50.420;18.854;2022-12-07T01:20:06;25;24;15
55043;PMS5003;54902;50.420;18.854;2022-12-07T01:20:37;25;24;15
55043;PMS5003;54902;50.420;18.854;2022-12-07T01:21:10;25;24;15
55043;PMS5003;54902;50.420;18.854;2022-12-07T01:21:43;25;24;15
55043;PMS5003;54902;50.420;18.854;2022-12-07T01:22:13;25;24;15
55043;PMS5003;54902;50.420;18.854;2022-12-07T01:22:44;25;24;15
55043;PMS5003;54902;50.420;18.854;2022-12-07T01:23:15;25;24;15
55043;PMS5003;54902;50.420;18.854;2022-12-07T01:23:47;25;24;15
55043;PMS5003;54902;50.420;18.854;2022-12-07T01:24:18;25;24;15
55043;PMS5003;54902;50.420;18.854;2022-12-07T01:24:49;25;24;15
55043;PMS5003;54902;50.420;18.854;2022-12-07T01:25:20;25;24;15
55043;PMS5003;54902;50.420;18.854;2022-12-07T01:26:29;12;12;8
55043;PMS5003;54902;50.420;18.854;2022-12-07T01:27:00;12;12;8
55043;PMS5003;54902;50.420;18.854;2022-12-07T01:27:32;12;12;8
55043;PMS5003;54902;50.420;18.854;2022-12-07T01:28:04;12;12;8
55043;PMS5003;54902;50.420;18.854;2022-12-07T01:28:35;12;12;8
55043;PMS5003;54902;50.420;18.854;2022-12-07T01:29:06;12;12;8
55043;PMS5003;54902;50.420;18.854;2022-12-07T01:29:37;12;12;8
55043;PMS5003;54902;50.420;18.854;2022-12-07T01:30:09;12;12;8
55043;PMS5003;54902;50.420;18.854;2022-12-07T01:30:41;12;12;8
55043;PMS5003;54902;50.420;18.854;2022-12-07T01:31:13;12;12;8
55043;PMS5003;54902;50.420;18.854;2022-12-07T01:31:48;21;21;15
55043;PMS5003;54902;50.420;18.854;2022-12-07T01:32:19;21;21;15
55043;PMS5003;54902;50.420;18.854;2022-12-07T01:32:50;21;21;15
55043;PMS5003;54902;50.420;18.854;2022-12-07T01:33:21;21;21;15
55043;PMS5003;54902;50.420;18.854;2022-12-07T01:33:54;21;21;15
55043;PMS5003;54902;50.420;18.854;2022-12-07T01:34:26;21;21;15
55043;PMS5003;54902;50.420;18.854;2022-12-07T01:34:57;21;21;15
55043;PMS5003;54902;50.420;18.854;2022-12-07T01:35:28;21;21;15
55043;PMS5003;54902;50.420;18.854;2022-12-07T01:36:03;21;21;15
55043;PMS5003;54902;50.420;18.854;2022-12-07T01:36:36;21;21;15
55043;PMS5003;54902;50.420;18.854;2022-12-07T01:37:07;11;11;9
55043;PMS5003;54902;50.420;18.854;2022-12-07T01:37:38;11;11;9
55043;PMS5003;54902;50.420;18.854;2022-12-07T01:38:09;11;11;9
55043;PMS5003;54902;50.420;18.854;2022-12-07T01:38:41;11;11;9
55043;PMS5003;54902;50.420;18.854;2022-12-07T01:39:12;11;11;9
55043;PMS5003;54902;50.420;18.854;2022-12-07T01:39:43;11;11;9
55043;PMS5003;54902;50.420;18.854;2022-12-07T01:40:14;11;11;9
55043;PMS5003;54902;50.420;18.854;2022-12-07T01:40:45;11;11;9
55043;PMS5003;54902;50.420;18.854;2022-12-07T01:41:21;11;11;9
55043;PMS5003;54902;50.420;18.854;2022-12-07T01:41:53;11;11;9
55043;PMS5003;54902;50.420;18.854;2022-12-07T01:42:24;11;11;8
55043;PMS5003;54902;50.420;18.854;2022-12-07T01:42:55;11;11;8
55043;PMS5003;54902;50.420;18.854;2022-12-07T01:43:27;11;11;8
55043;PMS5003;54902;50.420;18.854;2022-12-07T01:46:09;11;11;8
55043;PMS5003;54902;50.420;18.854;2022-12-07T01:46:40;11;11;8
55043;PMS5003;54902;50.420;18.854;2022-12-07T01:47:14;16;15;10
55043;PMS5003;54902;50.420;18.854;2022-12-07T01:47:47;16;15;10
55043;PMS5003;54902;50.420;18.854;2022-12-07T01:48:25;11;10;7
55043;PMS5003;54902;50.420;18.854;2022-12-07T01:48:59;13;13;9
55043;PMS5003;54902;50.420;18.854;2022-12-07T01:49:41;13;13;9
55043;PMS5003;54902;50.420;18.854;2022-12-07T01:50:09;13;13;9
55043;PMS5003;54902;50.420;18.854;2022-12-07T01:50:40;13;13;9
55043;PMS5003;54902;50.420;18.854;2022-12-07T01:51:13;13;13;9
55043;PMS5003;54902;50.420;18.854;2022-12-07T01:51:46;13;13;9
55043;PMS5003;54902;50.420;18.854;2022-12-07T01:52:20;16;16;11
55043;PMS5003;54902;50.420;18.854;2022-12-07T01:52:56;16;16;11
55043;PMS5003;54902;50.420;18.854;2022-12-07T01:53:32;16;16;11
55043;PMS5003;54902;50.420;18.854;2022-12-07T01:54:06;13;13;9
55043;PMS5003;54902;50.420;18.854;2022-12-07T01:54:38;13;13;9
55043;PMS5003;54902;50.420;18.854;2022-12-07T01:55:11;13;13;9
55043;PMS5003;54902;50.420;18.854;2022-12-07T01:55:45;13;13;9
55043;PMS5003;54902;50.420;18.854;2022-12-07T01:56:20;13;13;9
55043;PMS5003;54902;50.420;18.854;2022-12-07T01:56:57;13;13;9
55043;PMS5003;54902;50.420;18.854;2022-12-07T01:57:30;13;13;9
55043;PMS5003;54902;50.420;18.854;2022-12-07T01:58:04;13;13;9
55043;PMS5003;54902;50.420;18.854;2022-12-07T01:58:36;16;16;12
55043;PMS5003;54902;50.420;18.854;2022-12-07T01:59:07;16;16;12
55043;PMS5003;54902;50.420;18.854;2022-12-07T01:59:39;14;13;9
55043;PMS5003;54902;50.420;18.854;2022-12-07T02:00:10;14;13;9
55043;PMS5003;54902;50.420;18.854;2022-12-07T02:00:42;14;13;9
55043;PMS5003;54902;50.420;18.854;2022-12-07T02:01:13;14;13;9
55043;PMS5003;54902;50.420;18.854;2022-12-07T02:01:44;14;13;9
55043;PMS5003;54902;50.420;18.854;2022-12-07T02:03:40;14;13;9
55043;PMS5003;54902;50.420;18.854;2022-12-07T02:04:12;14;13;9
55043;PMS5003;54902;50.420;18.854;2022-12-07T02:04:45;14;13;9
55043;PMS5003;54902;50.420;18.854;2022-12-07T02:05:17;21;19;13
55043;PMS5003;54902;50.420;18.854;2022-12-07T02:05:49;5;5;4
55043;PMS5003;54902;50.420;18.854;2022-12-07T02:06:23;5;5;4
55043;PMS5003;54902;50.420;18.854;2022-12-07T02:06:56;5;5;4
55043;PMS5003;54902;50.420;18.854;2022-12-07T02:07:28;5;5;4
55043;PMS5003;54902;50.420;18.854;2022-12-07T02:08:01;5;5;4
55043;PMS5003;54902;50.420;18.854;2022-12-07T02:08:33;5;5;4
55043;PMS5003;54902;50.420;18.854;2022-12-07T02:09:04;9;9;6
55043;PMS5003;54902;50.420;18.854;2022-12-07T02:09:36;9;9;6
55043;PMS5003;54902;50.420;18.854;2022-12-07T02:10:51;18;17;9
55043;PMS5003;54902;50.420;18.854;2022-12-07T02:11:22;18;17;9
55043;PMS5003;54902;50.420;18.854;2022-12-07T02:11:53;18;17;9
55043;PMS5003;54902;50.420;18.854;2022-12-07T02:12:26;18;17;9
55043;PMS5003;54902;50.420;18.854;2022-12-07T02:12:58;18;17;9
55043;PMS5003;54902;50.420;18.854;2022-12-07T02:13:35;18;17;9
55043;PMS5003;54902;50.420;18.854;2022-12-07T02:14:08;18;17;9
55043;PMS5003;54902;50.420;18.854;2022-12-07T02:14:39;18;17;9
55043;PMS5003;54902;50.420;18.854;2022-12-07T02:15:10;18;17;9
55043;PMS5003;54902;50.420;18.854;2022-12-07T02:17:54;24;24;13
55043;PMS5003;54902;50.420;18.854;2022-12-07T02:18:40;24;24;13
55043;PMS5003;54902;50.420;18.854;2022-12-07T02:23:00;24;24;13
55043;PMS5003;54902;50.420;18.854;2022-12-07T02:25:08;8;8;6
55043;PMS5003;54902;50.420;18.854;2022-12-07T02:28:37;8;8;6
55043;PMS5003;54902;50.420;18.854;2022-12-07T02:30:33;16;16;10
55043;PMS5003;54902;50.420;18.854;2022-12-07T02:31:11;16;16;10
55043;PMS5003;54902;50.420;18.854;2022-12-07T02:34:09;16;16;10
55043;PMS5003;54902;50.420;18.854;2022-12-07T02:36:06;16;16;10
55043;PMS5003;54902;50.420;18.854;2022-12-07T02:36:08;16;16;10
55043;PMS5003;54902;50.420;18.854;2022-12-07T02:36:46;16;16;10
55043;PMS5003;54902;50.420;18.854;2022-12-07T02:37:33;16;16;10
55043;PMS5003;54902;50.420;18.854;2022-12-07T02:38:51;16;16;10
55043;PMS5003;54902;50.420;18.854;2022-12-07T02:39:36;16;16;10
55043;PMS5003;54902;50.420;18.854;2022-12-07T02:40:19;16;16;10
55043;PMS5003;54902;50.420;18.854;2022-12-07T02:41:36;16;16;10
55043;PMS5003;54902;50.420;18.854;2022-12-07T02:42:15;16;16;10
55043;PMS5003;54902;50.420;18.854;2022-12-07T02:42:50;16;16;10
55043;PMS5003;54902;50.420;18.854;2022-12-07T02:43:50;16;16;10
55043;PMS5003;54902;50.420;18.854;2022-12-07T02:44:13;16;16;10
55043;PMS5003;54902;50.420;18.854;2022-12-07T02:44:48;16;16;10
55043;PMS5003;54902;50.420;18.854;2022-12-07T02:45:21;16;16;10
55043;PMS5003;54902;50.420;18.854;2022-12-07T02:45:57;16;16;10
55043;PMS5003;54902;50.420;18.854;2022-12-07T02:46:37;16;16;10
55043;PMS5003;54902;50.420;18.854;2022-12-07T02:47:12;16;16;10
55043;PMS5003;54902;50.420;18.854;2022-12-07T02:47:48;16;16;10
55043;PMS5003;54902;50.420;18.854;2022-12-07T02:48:23;16;16;10
55043;PMS5003;54902;50.420;18.854;2022-12-07T02:48:57;13;13;8
55043;PMS5003;54902;50.420;18.854;2022-12-07T02:49:30;13;13;8
55043;PMS5003;54902;50.420;18.854;2022-12-07T02:50:03;10;10;8
55043;PMS5003;54902;50.420;18.854;2022-12-07T02:50:36;10;10;8
55043;PMS5003;54902;50.420;18.854;2022-12-07T02:51:07;10;10;8
55043;PMS5003;54902;50.420;18.854;2022-12-07T02:51:38;10;10;8
55043;PMS5003;54902;50.420;18.854;2022-12-07T02:52:13;10;10;8
55043;PMS5003;54902;50.420;18.854;2022-12-07T02:52:43;11;11;8
55043;PMS5003;54902;50.420;18.854;2022-12-07T02:53:58;11;11;8
55043;PMS5003;54902;50.420;18.854;2022-12-07T02:54:29;11;11;8
55043;PMS5003;54902;50.420;18.854;2022-12-07T02:55:00;11;11;8
55043;PMS5003;54902;50.420;18.854;2022-12-07T02:55:34;15;15;8
55043;PMS5003;54902;50.420;18.854;2022-12-07T02:57:48;11;11;7
55043;PMS5003;54902;50.420;18.854;2022-12-07T03:00:29;11;11;7
55043;PMS5003;54902;50.420;18.854;2022-12-07T03:01:54;11;11;7
55043;PMS5003;54902;50.420;18.854;2022-12-07T03:01:57;11;11;7
55043;PMS5003;54902;50.420;18.854;2022-12-07T03:02:36;17;17;11
55043;PMS5003;54902;50.420;18.854;2022-12-07T03:03:14;17;17;11
55043;PMS5003;54902;50.420;18.854;2022-12-07T03:03:47;17;17;11
55043;PMS5003;54902;50.420;18.854;2022-12-07T03:04:42;8;8;5
55043;PMS5003;54902;50.420;18.854;2022-12-07T03:06:36;13;11;7
55043;PMS5003;54902;50.420;18.854;2022-12-07T03:09:26;23;19;10
55043;PMS5003;54902;50.420;18.854;2022-12-07T03:10:14;23;19;10
55043;PMS5003;54902;50.420;18.854;2022-12-07T03:11:34;23;19;10
55043;PMS5003;54902;50.420;18.854;2022-12-07T03:12:14;23;19;10
55043;PMS5003;54902;50.420;18.854;2022-12-07T03:12:58;23;19;10
55043;PMS5003;54902;50.420;18.854;2022-12-07T03:13:39;23;19;10
55043;PMS5003;54902;50.420;18.854;2022-12-07T03:14:26;23;19;10
55043;PMS5003;54902;50.420;18.854;2022-12-07T03:15:16;23;19;10
55043;PMS5003;54902;50.420;18.854;2022-12-07T03:15:46;23;19;10
55043;PMS5003;54902;50.420;18.854;2022-12-07T03:16:27;27;22;12
55043;PMS5003;54902;50.420;18.854;2022-12-07T03:17:07;27;22;12
55043;PMS5003;54902;50.420;18.854;2022-12-07T03:17:44;27;22;12
55043;PMS5003;54902;50.420;18.854;2022-12-07T03:18:18;27;22;12
55043;PMS5003;54902;50.420;18.854;2022-12-07T03:18:56;27;22;12
55043;PMS5003;54902;50.420;18.854;2022-12-07T03:19:30;27;22;12
55043;PMS5003;54902;50.420;18.854;2022-12-07T03:20:03;27;22;12
55043;PMS5003;54902;50.420;18.854;2022-12-07T03:20:39;27;22;12
55043;PMS5003;54902;50.420;18.854;2022-12-07T03:21:14;27;22;12
55043;PMS5003;54902;50.420;18.854;2022-12-07T03:22:30;27;22;12
55043;PMS5003;54902;50.420;18.854;2022-12-07T03:23:05;27;22;12
55043;PMS5003;54902;50.420;18.854;2022-12-07T03:23:40;27;22;12
55043;PMS5003;54902;50.420;18.854;2022-12-07T03:24:18;27;22;12
55043;PMS5003;54902;50.420;18.854;2022-12-07T03:24:53;27;22;12
55043;PMS5003;54902;50.420;18.854;2022-12-07T03:25:28;27;22;12
55043;PMS5003;54902;50.420;18.854;2022-12-07T03:26:00;27;22;12
55043;PMS5003;54902;50.420;18.854;2022-12-07T03:26:36;27;22;12
55043;PMS5003;54902;50.420;18.854;2022-12-07T03:27:16;27;22;12
55043;PMS5003;54902;50.420;18.854;2022-12-07T03:27:53;27;22;12
55043;PMS5003;54902;50.420;18.854;2022-12-07T03:28:30;27;22;12
55043;PMS5003;54902;50.420;18.854;2022-12-07T03:29:07;27;22;12
55043;PMS5003;54902;50.420;18.854;2022-12-07T03:29:58;27;22;12
55043;PMS5003;54902;50.420;18.854;2022-12-07T03:31:13;27;22;12
55043;PMS5003;54902;50.420;18.854;2022-12-07T03:31:52;27;22;12
55043;PMS5003;54902;50.420;18.854;2022-12-07T03:33:18;27;22;12
55043;PMS5003;54902;50.420;18.854;2022-12-07T03:33:54;27;22;12
55043;PMS5003;54902;50.420;18.854;2022-12-07T03:34:35;27;22;12
55043;PMS5003;54902;50.420;18.854;2022-12-07T03:37:29;27;22;12
55043;PMS5003;54902;50.420;18.854;2022-12-07T03:38:06;27;22;12
55043;PMS5003;54902;50.420;18.854;2022-12-07T03:38:50;27;22;12
55043;PMS5003;54902;50.420;18.854;2022-12-07T03:40:54;24;20;9
55043;PMS5003;54902;50.420;18.854;2022-12-07T03:41:33;24;20;9
55043;PMS5003;54902;50.420;18.854;2022-12-07T03:42:07;25;23;11
55043;PMS5003;54902;50.420;18.854;2022-12-07T03:42:41;25;23;11
55043;PMS5003;54902;50.420;18.854;2022-12-07T03:43:13;25;23;11
55043;PMS5003;54902;50.420;18.854;2022-12-07T03:43:44;25;23;11
55043;PMS5003;54902;50.420;18.854;2022-12-07T03:44:15;25;23;11
55043;PMS5003;54902;50.420;18.854;2022-12-07T03:44:47;22;20;11
55043;PMS5003;54902;50.420;18.854;2022-12-07T03:45:20;22;20;11
55043;PMS5003;54902;50.420;18.854;2022-12-07T03:47:26;22;20;11
55043;PMS5003;54902;50.420;18.854;2022-12-07T03:47:29;22;20;11
55043;PMS5003;54902;50.420;18.854;2022-12-07T03:48:07;23;22;13
55043;PMS5003;54902;50.420;18.854;2022-12-07T03:48:51;23;22;13
55043;PMS5003;54902;50.420;18.854;2022-12-07T03:49:31;23;22;13
55043;PMS5003;54902;50.420;18.854;2022-12-07T03:50:58;23;22;13
55043;PMS5003;54902;50.420;18.854;2022-12-07T03:52:21;23;22;13
55043;PMS5003;54902;50.420;18.854;2022-12-07T03:53:02;23;22;13
55043;PMS5003;54902;50.420;18.854;2022-12-07T03:53:42;23;22;13
55043;PMS5003;54902;50.420;18.854;2022-12-07T03:54:21;23;22;13
55043;PMS5003;54902;50.420;18.854;2022-12-07T03:55:46;28;27;16
55043;PMS5003;54902;50.420;18.854;2022-12-07T03:56:20;28;27;16
55043;PMS5003;54902;50.420;18.854;2022-12-07T03:56:52;28;27;16
55043;PMS5003;54902;50.420;18.854;2022-12-07T03:57:26;28;27;16
55043;PMS5003;54902;50.420;18.854;2022-12-07T03:58:01;28;27;16
55043;PMS5003;54902;50.420;18.854;2022-12-07T03:58:36;28;27;16
55043;PMS5003;54902;50.420;18.854;2022-12-07T03:59:08;28;27;16
55043;PMS5003;54902;50.420;18.854;2022-12-07T03:59:41;28;27;16
55043;PMS5003;54902;50.420;18.854;2022-12-07T04:00:13;28;27;16
55043;PMS5003;54902;50.420;18.854;2022-12-07T04:00:44;28;27;16
55043;PMS5003;54902;50.420;18.854;2022-12-07T04:01:17;28;27;16
55043;PMS5003;54902;50.420;18.854;2022-12-07T04:01:55;28;27;16
55043;PMS5003;54902;50.420;18.854;2022-12-07T04:02:27;28;27;16
55043;PMS5003;54902;50.420;18.854;2022-12-07T04:02:59;28;27;16
55043;PMS5003;54902;50.420;18.854;2022-12-07T04:03:30;28;27;16
55043;PMS5003;54902;50.420;18.854;2022-12-07T04:04:01;28;27;16
55043;PMS5003;54902;50.420;18.854;2022-12-07T04:04:32;28;27;16
55043;PMS5003;54902;50.420;18.854;2022-12-07T04:05:05;28;27;16
55043;PMS5003;54902;50.420;18.854;2022-12-07T04:05:36;28;27;16
55043;PMS5003;54902;50.420;18.854;2022-12-07T04:06:08;28;27;16
55043;PMS5003;54902;50.420;18.854;2022-12-07T04:06:39;28;27;16
55043;PMS5003;54902;50.420;18.854;2022-12-07T04:07:10;28;27;16
55043;PMS5003;54902;50.420;18.854;2022-12-07T04:07:43;28;27;16
55043;PMS5003;54902;50.420;18.854;2022-12-07T04:08:14;28;27;16
55043;PMS5003;54902;50.420;18.854;2022-12-07T04:08:45;28;27;16
55043;PMS5003;54902;50.420;18.854;2022-12-07T04:09:16;28;27;16
55043;PMS5003;54902;50.420;18.854;2022-12-07T04:09:47;28;27;16
55043;PMS5003;54902;50.420;18.854;2022-12-07T04:10:19;28;27;16
55043;PMS5003;54902;50.420;18.854;2022-12-07T04:10:50;28;27;16
55043;PMS5003;54902;50.420;18.854;2022-12-07T04:11:21;28;27;16
55043;PMS5003;54902;50.420;18.854;2022-12-07T04:11:52;28;27;16
55043;PMS5003;54902;50.420;18.854;2022-12-07T04:12:23;28;27;16
55043;PMS5003;54902;50.420;18.854;2022-12-07T04:12:55;28;27;16